sensor_id;sensor_type;location;lat;lon;timestamp;temperature;humidity
12926;DHT22;6529;50.566;9.774;2023-08-01T00:00:15;16.00;99.90
12926;DHT22;6529;50.566;9.774;2023-08-01T00:02:41;16.00;99.90
12926;DHT22;6529;50.566;9.774;2023-08-01T00:05:08;16.00;99.90
12926;DHT22;6529;50.566;9.774;2023-08-01T00:07:33;16.00;99.90
12926;DHT22;6529;50.566;9.774;2023-08-01T00:09:59;16.10;99.90
12926;DHT22;6529;50.566;9.774;2023-08-01T00:12:24;16.10;99.90
12926;DHT22;6529;50.566;9.774;2023-08-01T00:14:50;16.10;99.90
12926;DHT22;6529;50.566;9.774;2023-08-01T00:17:16;16.10;99.90
12926;DHT22;6529;50.566;9.774;2023-08-01T00:19:41;16.10;99.90
12926;DHT22;6529;50.566;9.774;2023-08-01T00:22:07;16.10;99.90
12926;DHT22;6529;50.566;9.774;2023-08-01T00:24:32;16.10;99.90
12926;DHT22;6529;50.566;9.774;2023-08-01T00:26:58;16.10;99.90
12926;DHT22;6529;50.566;9.774;2023-08-01T00:29:23;16.10;99.90
12926;DHT22;6529;50.566;9.774;2023-08-01T00:31:49;16.10;99.90
12926;DHT22;6529;50.566;9.774;2023-08-01T00:34:14;16.10;99.90
12926;DHT22;6529;50.566;9.774;2023-08-01T00:36:40;16.10;99.90
12926;DHT22;6529;50.566;9.774;2023-08-01T00:39:05;16.10;99.90
12926;DHT22;6529;50.566;9.774;2023-08-01T00:41:31;16.10;99.90
12926;DHT22;6529;50.566;9.774;2023-08-01T00:43:57;16.10;99.90
12926;DHT22;6529;50.566;9.774;2023-08-01T00:46:23;16.10;99.90
12926;DHT22;6529;50.566;9.774;2023-08-01T00:48:49;16.00;99.90
12926;DHT22;6529;50.566;9.774;2023-08-01T00:51:15;16.10;99.90
12926;DHT22;6529;50.566;9.774;2023-08-01T00:53:43;16.10;99.90
12926;DHT22;6529;50.566;9.774;2023-08-01T00:56:10;16.10;99.90
12926;DHT22;6529;50.566;9.774;2023-08-01T00:58:36;16.10;99.90
12926;DHT22;6529;50.566;9.774;2023-08-01T01:01:02;16.10;99.90
12926;DHT22;6529;50.566;9.774;2023-08-01T01:03:29;16.10;99.90
12926;DHT22;6529;50.566;9.774;2023-08-01T01:08:26;16.10;99.90
12926;DHT22;6529;50.566;9.774;2023-08-01T01:10:52;16.00;99.90
12926;DHT22;6529;50.566;9.774;2023-08-01T01:13:17;16.00;99.90
12926;DHT22;6529;50.566;9.774;2023-08-01T01:15:43;16.00;99.90
12926;DHT22;6529;50.566;9.774;2023-08-01T01:18:08;16.00;99.90
12926;DHT22;6529;50.566;9.774;2023-08-01T01:20:35;16.10;99.90
12926;DHT22;6529;50.566;9.774;2023-08-01T01:23:02;16.00;99.90
12926;DHT22;6529;50.566;9.774;2023-08-01T01:25:30;16.00;99.90
12926;DHT22;6529;50.566;9.774;2023-08-01T01:27:57;16.00;99.90
12926;DHT22;6529;50.566;9.774;2023-08-01T01:30:23;16.00;99.90
12926;DHT22;6529;50.566;9.774;2023-08-01T01:32:49;16.00;99.90
12926;DHT22;6529;50.566;9.774;2023-08-01T01:35:15;16.00;99.90
12926;DHT22;6529;50.566;9.774;2023-08-01T01:37:41;16.00;99.90
12926;DHT22;6529;50.566;9.774;2023-08-01T01:40:07;16.00;99.90
12926;DHT22;6529;50.566;9.774;2023-08-01T01:42:32;16.10;99.90
12926;DHT22;6529;50.566;9.774;2023-08-01T01:44:58;16.00;99.90
12926;DHT22;6529;50.566;9.774;2023-08-01T01:47:23;16.10;99.90
12926;DHT22;6529;50.566;9.774;2023-08-01T01:49:49;16.10;99.90
12926;DHT22;6529;50.566;9.774;2023-08-01T01:52:14;16.00;99.90
12926;DHT22;6529;50.566;9.774;2023-08-01T01:54:40;16.10;99.90
12926;DHT22;6529;50.566;9.774;2023-08-01T01:57:06;16.10;99.90
12926;DHT22;6529;50.566;9.774;2023-08-01T01:59:31;16.10;99.90
12926;DHT22;6529;50.566;9.774;2023-08-01T02:01:57;16.10;99.90
12926;DHT22;6529;50.566;9.774;2023-08-01T02:04:22;16.10;99.90
12926;DHT22;6529;50.566;9.774;2023-08-01T02:06:48;16.10;99.90
12926;DHT22;6529;50.566;9.774;2023-08-01T02:09:13;16.00;99.90
12926;DHT22;6529;50.566;9.774;2023-08-01T02:11:39;16.00;99.90
12926;DHT22;6529;50.566;9.774;2023-08-01T02:14:05;16.00;99.90
12926;DHT22;6529;50.566;9.774;2023-08-01T02:16:30;16.00;99.90
12926;DHT22;6529;50.566;9.774;2023-08-01T02:18:57;16.00;99.90
12926;DHT22;6529;50.566;9.774;2023-08-01T02:21:23;16.00;99.90
12926;DHT22;6529;50.566;9.774;2023-08-01T02:23:48;16.00;99.90
12926;DHT22;6529;50.566;9.774;2023-08-01T02:26:14;16.00;99.90
12926;DHT22;6529;50.566;9.774;2023-08-01T02:28:39;16.00;99.90
12926;DHT22;6529;50.566;9.774;2023-08-01T02:31:05;16.00;99.90
12926;DHT22;6529;50.566;9.774;2023-08-01T02:33:31;16.10;99.90
12926;DHT22;6529;50.566;9.774;2023-08-01T02:35:56;16.10;99.90
12926;DHT22;6529;50.566;9.774;2023-08-01T02:38:22;16.10;99.90
12926;DHT22;6529;50.566;9.774;2023-08-01T02:40:47;16.10;99.90
12926;DHT22;6529;50.566;9.774;2023-08-01T02:43:13;16.10;99.90
12926;DHT22;6529;50.566;9.774;2023-08-01T02:45:38;16.10;99.90
12926;DHT22;6529;50.566;9.774;2023-08-01T02:48:04;16.10;99.90
12926;DHT22;6529;50.566;9.774;2023-08-01T02:50:29;16.20;99.90
12926;DHT22;6529;50.566;9.774;2023-08-01T02:52:55;16.20;99.90
12926;DHT22;6529;50.566;9.774;2023-08-01T02:55:21;16.20;99.90
12926;DHT22;6529;50.566;9.774;2023-08-01T02:57:46;16.20;99.90
12926;DHT22;6529;50.566;9.774;2023-08-01T03:00:12;16.20;99.90
12926;DHT22;6529;50.566;9.774;2023-08-01T03:02:38;16.20;99.90
12926;DHT22;6529;50.566;9.774;2023-08-01T03:05:06;16.30;99.90
12926;DHT22;6529;50.566;9.774;2023-08-01T03:07:33;16.30;99.90
12926;DHT22;6529;50.566;9.774;2023-08-01T03:09:58;16.30;99.90
12926;DHT22;6529;50.566;9.774;2023-08-01T03:12:24;16.20;99.90
12926;DHT22;6529;50.566;9.774;2023-08-01T03:14:49;16.20;99.90
12926;DHT22;6529;50.566;9.774;2023-08-01T03:17:15;16.20;99.90
12926;DHT22;6529;50.566;9.774;2023-08-01T03:19:42;16.20;99.90
12926;DHT22;6529;50.566;9.774;2023-08-01T03:22:07;16.20;99.90
12926;DHT22;6529;50.566;9.774;2023-08-01T03:24:33;16.20;99.90
12926;DHT22;6529;50.566;9.774;2023-08-01T03:26:59;16.30;99.90
12926;DHT22;6529;50.566;9.774;2023-08-01T03:29:24;16.30;99.90
12926;DHT22;6529;50.566;9.774;2023-08-01T03:31:50;16.30;99.90
12926;DHT22;6529;50.566;9.774;2023-08-01T03:34:15;16.20;99.90
12926;DHT22;6529;50.566;9.774;2023-08-01T03:36:41;16.30;99.90
12926;DHT22;6529;50.566;9.774;2023-08-01T03:39:06;16.30;99.90
12926;DHT22;6529;50.566;9.774;2023-08-01T03:41:32;16.30;99.90
12926;DHT22;6529;50.566;9.774;2023-08-01T03:43:58;16.30;99.90
12926;DHT22;6529;50.566;9.774;2023-08-01T03:46:23;16.30;99.90
12926;DHT22;6529;50.566;9.774;2023-08-01T03:48:49;16.30;99.90
12926;DHT22;6529;50.566;9.774;2023-08-01T03:51:15;16.30;99.90
12926;DHT22;6529;50.566;9.774;2023-08-01T03:53:41;16.30;99.90
12926;DHT22;6529;50.566;9.774;2023-08-01T03:56:07;16.30;99.90
12926;DHT22;6529;50.566;9.774;2023-08-01T03:58:33;16.30;99.90
12926;DHT22;6529;50.566;9.774;2023-08-01T04:00:58;16.30;99.90
12926;DHT22;6529;50.566;9.774;2023-08-01T04:03:24;16.30;99.90
12926;DHT22;6529;50.566;9.774;2023-08-01T04:05:49;16.30;99.90
12926;DHT22;6529;50.566;9.774;2023-08-01T04:08:15;16.30;99.90
12926;DHT22;6529;50.566;9.774;2023-08-01T04:10:40;16.20;99.90
12926;DHT22;6529;50.566;9.774;2023-08-01T04:13:06;16.20;99.90
12926;DHT22;6529;50.566;9.774;2023-08-01T04:15:32;16.20;99.90
12926;DHT22;6529;50.566;9.774;2023-08-01T04:17:57;16.20;99.90
12926;DHT22;6529;50.566;9.774;2023-08-01T04:20:23;16.30;99.90
12926;DHT22;6529;50.566;9.774;2023-08-01T04:22:48;16.30;99.90
12926;DHT22;6529;50.566;9.774;2023-08-01T04:25:14;16.30;99.90
12926;DHT22;6529;50.566;9.774;2023-08-01T04:27:39;16.30;99.90
12926;DHT22;6529;50.566;9.774;2023-08-01T04:30:05;16.30;99.90
12926;DHT22;6529;50.566;9.774;2023-08-01T04:32:31;16.30;99.90
12926;DHT22;6529;50.566;9.774;2023-08-01T04:34:57;16.30;99.90
12926;DHT22;6529;50.566;9.774;2023-08-01T04:37:23;16.20;99.90
12926;DHT22;6529;50.566;9.774;2023-08-01T04:39:48;16.20;99.90
12926;DHT22;6529;50.566;9.774;2023-08-01T04:42:14;16.20;99.90
12926;DHT22;6529;50.566;9.774;2023-08-01T04:44:40;16.30;99.90
12926;DHT22;6529;50.566;9.774;2023-08-01T04:47:05;16.30;99.90
12926;DHT22;6529;50.566;9.774;2023-08-01T04:49:31;16.30;99.90
12926;DHT22;6529;50.566;9.774;2023-08-01T04:51:56;16.30;99.90
12926;DHT22;6529;50.566;9.774;2023-08-01T04:54:22;16.30;99.90
12926;DHT22;6529;50.566;9.774;2023-08-01T04:56:47;16.40;99.90
12926;DHT22;6529;50.566;9.774;2023-08-01T04:59:13;16.40;99.90
12926;DHT22;6529;50.566;9.774;2023-08-01T05:01:38;16.40;99.90
12926;DHT22;6529;50.566;9.774;2023-08-01T05:04:04;16.40;99.90
12926;DHT22;6529;50.566;9.774;2023-08-01T05:06:30;16.40;99.90
12926;DHT22;6529;50.566;9.774;2023-08-01T05:08:55;16.40;99.90
12926;DHT22;6529;50.566;9.774;2023-08-01T05:11:21;16.50;99.90
12926;DHT22;6529;50.566;9.774;2023-08-01T05:13:47;16.50;99.90
12926;DHT22;6529;50.566;9.774;2023-08-01T05:16:12;16.50;99.90
12926;DHT22;6529;50.566;9.774;2023-08-01T05:18:38;16.50;99.90
12926;DHT22;6529;50.566;9.774;2023-08-01T05:21:04;16.50;99.90
12926;DHT22;6529;50.566;9.774;2023-08-01T05:23:29;16.50;99.90
12926;DHT22;6529;50.566;9.774;2023-08-01T05:25:55;16.50;99.90
12926;DHT22;6529;50.566;9.774;2023-08-01T05:28:20;16.60;99.90
12926;DHT22;6529;50.566;9.774;2023-08-01T05:30:46;16.60;99.90
12926;DHT22;6529;50.566;9.774;2023-08-01T05:33:12;16.60;99.90
12926;DHT22;6529;50.566;9.774;2023-08-01T05:35:38;16.60;99.90
12926;DHT22;6529;50.566;9.774;2023-08-01T05:38:03;16.70;99.90
12926;DHT22;6529;50.566;9.774;2023-08-01T05:40:29;16.60;99.90
12926;DHT22;6529;50.566;9.774;2023-08-01T05:42:54;16.70;99.90
12926;DHT22;6529;50.566;9.774;2023-08-01T05:45:20;16.70;99.90
12926;DHT22;6529;50.566;9.774;2023-08-01T05:47:45;16.70;99.90
12926;DHT22;6529;50.566;9.774;2023-08-01T05:50:11;16.70;99.90
12926;DHT22;6529;50.566;9.774;2023-08-01T05:52:37;16.70;99.90
12926;DHT22;6529;50.566;9.774;2023-08-01T05:55:03;16.60;99.90
12926;DHT22;6529;50.566;9.774;2023-08-01T05:57:29;16.70;99.90
12926;DHT22;6529;50.566;9.774;2023-08-01T05:59:54;16.60;99.90
12926;DHT22;6529;50.566;9.774;2023-08-01T06:02:20;16.60;99.90
12926;DHT22;6529;50.566;9.774;2023-08-01T06:04:46;16.50;99.90
12926;DHT22;6529;50.566;9.774;2023-08-01T06:07:11;16.50;99.90
12926;DHT22;6529;50.566;9.774;2023-08-01T06:09:37;16.40;99.90
12926;DHT22;6529;50.566;9.774;2023-08-01T06:12:02;16.40;99.90
12926;DHT22;6529;50.566;9.774;2023-08-01T06:14:28;16.40;99.90
12926;DHT22;6529;50.566;9.774;2023-08-01T06:16:54;16.40;99.90
12926;DHT22;6529;50.566;9.774;2023-08-01T06:19:19;16.40;99.90
12926;DHT22;6529;50.566;9.774;2023-08-01T06:21:45;16.50;99.90
12926;DHT22;6529;50.566;9.774;2023-08-01T06:24:10;16.50;99.90
12926;DHT22;6529;50.566;9.774;2023-08-01T06:26:36;16.50;99.90
12926;DHT22;6529;50.566;9.774;2023-08-01T06:29:01;16.50;99.90
12926;DHT22;6529;50.566;9.774;2023-08-01T06:31:27;16.50;99.90
12926;DHT22;6529;50.566;9.774;2023-08-01T06:33:53;16.50;99.90
12926;DHT22;6529;50.566;9.774;2023-08-01T06:36:18;16.40;99.90
12926;DHT22;6529;50.566;9.774;2023-08-01T06:38:44;16.50;99.90
12926;DHT22;6529;50.566;9.774;2023-08-01T06:41:09;16.40;99.90
12926;DHT22;6529;50.566;9.774;2023-08-01T06:43:35;16.40;99.90
12926;DHT22;6529;50.566;9.774;2023-08-01T06:46:03;16.40;99.90
12926;DHT22;6529;50.566;9.774;2023-08-01T06:48:29;16.40;99.90
12926;DHT22;6529;50.566;9.774;2023-08-01T06:50:54;16.40;99.90
12926;DHT22;6529;50.566;9.774;2023-08-01T06:53:20;16.40;99.90
12926;DHT22;6529;50.566;9.774;2023-08-01T06:55:46;16.40;99.90
12926;DHT22;6529;50.566;9.774;2023-08-01T06:58:12;16.40;99.90
12926;DHT22;6529;50.566;9.774;2023-08-01T07:00:37;16.40;99.90
12926;DHT22;6529;50.566;9.774;2023-08-01T07:03:03;16.40;99.90
12926;DHT22;6529;50.566;9.774;2023-08-01T07:05:29;16.40;99.90
12926;DHT22;6529;50.566;9.774;2023-08-01T07:07:54;16.40;99.90
12926;DHT22;6529;50.566;9.774;2023-08-01T07:10:20;16.40;99.90
12926;DHT22;6529;50.566;9.774;2023-08-01T07:12:46;16.50;99.90
12926;DHT22;6529;50.566;9.774;2023-08-01T07:15:11;16.50;99.90
12926;DHT22;6529;50.566;9.774;2023-08-01T07:17:37;16.60;99.90
12926;DHT22;6529;50.566;9.774;2023-08-01T07:20:02;16.60;99.90
12926;DHT22;6529;50.566;9.774;2023-08-01T07:22:28;16.60;99.90
12926;DHT22;6529;50.566;9.774;2023-08-01T07:24:54;16.50;99.90
12926;DHT22;6529;50.566;9.774;2023-08-01T07:27:20;16.60;99.90
12926;DHT22;6529;50.566;9.774;2023-08-01T07:29:46;16.60;99.90
12926;DHT22;6529;50.566;9.774;2023-08-01T07:32:12;16.70;99.90
12926;DHT22;6529;50.566;9.774;2023-08-01T07:34:37;16.80;99.90
12926;DHT22;6529;50.566;9.774;2023-08-01T07:37:03;16.80;99.90
12926;DHT22;6529;50.566;9.774;2023-08-01T07:39:29;16.90;99.90
12926;DHT22;6529;50.566;9.774;2023-08-01T07:41:55;17.00;99.90
12926;DHT22;6529;50.566;9.774;2023-08-01T07:44:21;17.00;99.90
12926;DHT22;6529;50.566;9.774;2023-08-01T07:46:47;17.10;99.90
12926;DHT22;6529;50.566;9.774;2023-08-01T07:49:12;17.00;99.90
12926;DHT22;6529;50.566;9.774;2023-08-01T07:51:38;16.90;99.90
12926;DHT22;6529;50.566;9.774;2023-08-01T07:54:03;16.90;99.90
12926;DHT22;6529;50.566;9.774;2023-08-01T07:56:29;16.90;99.90
12926;DHT22;6529;50.566;9.774;2023-08-01T07:58:55;16.90;99.90
12926;DHT22;6529;50.566;9.774;2023-08-01T08:01:21;16.90;99.90
12926;DHT22;6529;50.566;9.774;2023-08-01T08:03:46;16.90;99.90
12926;DHT22;6529;50.566;9.774;2023-08-01T08:06:12;16.90;99.90
12926;DHT22;6529;50.566;9.774;2023-08-01T08:08:37;16.90;99.90
12926;DHT22;6529;50.566;9.774;2023-08-01T08:11:03;17.00;99.90
12926;DHT22;6529;50.566;9.774;2023-08-01T08:13:29;17.00;99.90
12926;DHT22;6529;50.566;9.774;2023-08-01T08:15:58;17.00;99.90
12926;DHT22;6529;50.566;9.774;2023-08-01T08:18:24;17.00;99.90
12926;DHT22;6529;50.566;9.774;2023-08-01T08:20:49;17.10;99.90
12926;DHT22;6529;50.566;9.774;2023-08-01T08:23:15;17.20;99.90
12926;DHT22;6529;50.566;9.774;2023-08-01T08:25:42;17.20;99.90
12926;DHT22;6529;50.566;9.774;2023-08-01T08:28:08;17.20;99.90
12926;DHT22;6529;50.566;9.774;2023-08-01T08:30:34;17.20;99.90
12926;DHT22;6529;50.566;9.774;2023-08-01T08:33:00;17.10;99.90
12926;DHT22;6529;50.566;9.774;2023-08-01T08:35:30;17.10;99.90
12926;DHT22;6529;50.566;9.774;2023-08-01T08:37:55;17.10;99.90
12926;DHT22;6529;50.566;9.774;2023-08-01T08:40:21;17.10;99.90
12926;DHT22;6529;50.566;9.774;2023-08-01T08:42:48;17.10;99.90
12926;DHT22;6529;50.566;9.774;2023-08-01T08:45:18;17.10;99.90
12926;DHT22;6529;50.566;9.774;2023-08-01T08:47:48;17.10;99.90
12926;DHT22;6529;50.566;9.774;2023-08-01T08:50:18;17.10;99.90
12926;DHT22;6529;50.566;9.774;2023-08-01T08:52:45;17.10;99.90
12926;DHT22;6529;50.566;9.774;2023-08-01T08:55:11;17.10;99.90
12926;DHT22;6529;50.566;9.774;2023-08-01T08:57:37;17.00;99.90
12926;DHT22;6529;50.566;9.774;2023-08-01T09:00:05;16.90;99.90
12926;DHT22;6529;50.566;9.774;2023-08-01T09:02:32;16.90;99.90
12926;DHT22;6529;50.566;9.774;2023-08-01T09:04:58;16.80;99.90
12926;DHT22;6529;50.566;9.774;2023-08-01T09:07:29;16.80;99.90
12926;DHT22;6529;50.566;9.774;2023-08-01T09:09:54;16.70;99.90
12926;DHT22;6529;50.566;9.774;2023-08-01T09:12:21;16.70;99.90
12926;DHT22;6529;50.566;9.774;2023-08-01T09:14:48;16.70;99.90
12926;DHT22;6529;50.566;9.774;2023-08-01T09:17:15;16.80;99.90
12926;DHT22;6529;50.566;9.774;2023-08-01T09:19:43;16.80;99.90
12926;DHT22;6529;50.566;9.774;2023-08-01T09:22:13;16.90;99.90
12926;DHT22;6529;50.566;9.774;2023-08-01T09:24:49;17.00;99.90
12926;DHT22;6529;50.566;9.774;2023-08-01T09:27:15;17.30;99.90
12926;DHT22;6529;50.566;9.774;2023-08-01T09:29:40;17.60;99.90
12926;DHT22;6529;50.566;9.774;2023-08-01T09:32:13;17.60;99.90
12926;DHT22;6529;50.566;9.774;2023-08-01T09:34:42;17.60;99.90
12926;DHT22;6529;50.566;9.774;2023-08-01T09:37:08;17.60;99.90
12926;DHT22;6529;50.566;9.774;2023-08-01T09:39:34;17.60;99.90
12926;DHT22;6529;50.566;9.774;2023-08-01T09:42:01;17.70;99.90
12926;DHT22;6529;50.566;9.774;2023-08-01T09:44:28;17.80;99.90
12926;DHT22;6529;50.566;9.774;2023-08-01T09:49:22;17.80;99.90
12926;DHT22;6529;50.566;9.774;2023-08-01T09:51:49;17.70;64.90
12926;DHT22;6529;50.566;9.774;2023-08-01T09:54:16;17.80;99.90
12926;DHT22;6529;50.566;9.774;2023-08-01T09:56:44;17.80;99.90
12926;DHT22;6529;50.566;9.774;2023-08-01T09:59:10;18.10;1.00
12926;DHT22;6529;50.566;9.774;2023-08-01T10:01:38;18.60;70.60
12926;DHT22;6529;50.566;9.774;2023-08-01T10:04:04;18.90;1.00
12926;DHT22;6529;50.566;9.774;2023-08-01T10:06:33;18.60;99.90
12926;DHT22;6529;50.566;9.774;2023-08-01T10:08:59;18.30;1.00
12926;DHT22;6529;50.566;9.774;2023-08-01T10:11:26;18.20;1.00
12926;DHT22;6529;50.566;9.774;2023-08-01T10:13:54;18.30;1.00
12926;DHT22;6529;50.566;9.774;2023-08-01T10:16:21;18.70;1.00
12926;DHT22;6529;50.566;9.774;2023-08-01T10:18:48;19.00;99.90
12926;DHT22;6529;50.566;9.774;2023-08-01T10:21:16;19.10;1.00
12926;DHT22;6529;50.566;9.774;2023-08-01T10:23:43;19.00;1.00
12926;DHT22;6529;50.566;9.774;2023-08-01T10:26:11;18.90;99.90
12926;DHT22;6529;50.566;9.774;2023-08-01T10:28:41;18.80;99.90
12926;DHT22;6529;50.566;9.774;2023-08-01T10:31:12;18.80;99.90
12926;DHT22;6529;50.566;9.774;2023-08-01T10:33:46;19.20;1.00
12926;DHT22;6529;50.566;9.774;2023-08-01T10:36:16;19.60;1.00
12926;DHT22;6529;50.566;9.774;2023-08-01T10:38:59;20.10;1.00
12926;DHT22;6529;50.566;9.774;2023-08-01T10:44:24;20.60;99.90
12926;DHT22;6529;50.566;9.774;2023-08-01T10:51:58;20.50;1.00
12926;DHT22;6529;50.566;9.774;2023-08-01T10:54:25;20.20;1.00
12926;DHT22;6529;50.566;9.774;2023-08-01T10:56:53;20.40;72.30
12926;DHT22;6529;50.566;9.774;2023-08-01T10:59:19;20.30;1.00
12926;DHT22;6529;50.566;9.774;2023-08-01T11:01:50;20.20;99.90
12926;DHT22;6529;50.566;9.774;2023-08-01T11:04:17;20.10;86.70
12926;DHT22;6529;50.566;9.774;2023-08-01T11:06:44;20.00;1.00
12926;DHT22;6529;50.566;9.774;2023-08-01T11:09:21;19.90;99.90
12926;DHT22;6529;50.566;9.774;2023-08-01T11:11:49;19.80;99.90
12926;DHT22;6529;50.566;9.774;2023-08-01T11:14:15;19.70;1.00
12926;DHT22;6529;50.566;9.774;2023-08-01T11:16:42;19.60;1.00
12926;DHT22;6529;50.566;9.774;2023-08-01T11:19:25;19.50;99.90
12926;DHT22;6529;50.566;9.774;2023-08-01T11:21:52;19.40;1.00
12926;DHT22;6529;50.566;9.774;2023-08-01T11:24:19;19.20;96.90
12926;DHT22;6529;50.566;9.774;2023-08-01T11:26:46;19.10;99.90
12926;DHT22;6529;50.566;9.774;2023-08-01T11:29:13;19.40;1.00
12926;DHT22;6529;50.566;9.774;2023-08-01T11:31:39;19.90;99.90
12926;DHT22;6529;50.566;9.774;2023-08-01T11:34:07;20.50;1.00
12926;DHT22;6529;50.566;9.774;2023-08-01T11:36:33;20.70;99.90
12926;DHT22;6529;50.566;9.774;2023-08-01T11:39:00;20.40;99.90
12926;DHT22;6529;50.566;9.774;2023-08-01T11:41:29;20.10;99.90
12926;DHT22;6529;50.566;9.774;2023-08-01T11:43:55;19.70;99.90
12926;DHT22;6529;50.566;9.774;2023-08-01T11:46:22;19.60;1.00
12926;DHT22;6529;50.566;9.774;2023-08-01T11:48:48;19.80;99.90
12926;DHT22;6529;50.566;9.774;2023-08-01T11:51:16;20.10;99.90
12926;DHT22;6529;50.566;9.774;2023-08-01T11:53:41;20.00;99.90
12926;DHT22;6529;50.566;9.774;2023-08-01T11:56:07;20.10;99.90
12926;DHT22;6529;50.566;9.774;2023-08-01T11:58:36;20.30;1.00
12926;DHT22;6529;50.566;9.774;2023-08-01T12:01:06;20.20;1.00
12926;DHT22;6529;50.566;9.774;2023-08-01T12:03:45;20.10;1.00
12926;DHT22;6529;50.566;9.774;2023-08-01T12:06:11;20.10;1.00
12926;DHT22;6529;50.566;9.774;2023-08-01T12:08:38;20.50;99.90
12926;DHT22;6529;50.566;9.774;2023-08-01T12:11:04;20.80;97.40
12926;DHT22;6529;50.566;9.774;2023-08-01T12:13:30;20.60;98.40
12926;DHT22;6529;50.566;9.774;2023-08-01T12:15:56;20.50;1.00
12926;DHT22;6529;50.566;9.774;2023-08-01T12:18:27;20.90;99.90
12926;DHT22;6529;50.566;9.774;2023-08-01T12:20:53;21.50;1.00
12926;DHT22;6529;50.566;9.774;2023-08-01T12:23:19;21.80;99.90
12926;DHT22;6529;50.566;9.774;2023-08-01T12:25:46;22.00;99.90
12926;DHT22;6529;50.566;9.774;2023-08-01T12:28:13;22.00;99.90
12926;DHT22;6529;50.566;9.774;2023-08-01T12:30:40;22.10;99.90
12926;DHT22;6529;50.566;9.774;2023-08-01T12:33:09;22.10;3.30
12926;DHT22;6529;50.566;9.774;2023-08-01T12:35:38;22.30;99.90
12926;DHT22;6529;50.566;9.774;2023-08-01T12:38:04;22.60;1.00
12926;DHT22;6529;50.566;9.774;2023-08-01T12:40:29;22.40;1.00
12926;DHT22;6529;50.566;9.774;2023-08-01T12:42:55;22.10;99.90
12926;DHT22;6529;50.566;9.774;2023-08-01T12:45:20;21.70;1.00
12926;DHT22;6529;50.566;9.774;2023-08-01T12:47:46;21.40;1.00
12926;DHT22;6529;50.566;9.774;2023-08-01T12:50:11;21.40;1.00
12926;DHT22;6529;50.566;9.774;2023-08-01T12:52:37;21.10;1.00
12926;DHT22;6529;50.566;9.774;2023-08-01T12:55:03;21.20;99.90
12926;DHT22;6529;50.566;9.774;2023-08-01T12:57:28;21.40;1.00
12926;DHT22;6529;50.566;9.774;2023-08-01T12:59:54;21.90;99.90
12926;DHT22;6529;50.566;9.774;2023-08-01T13:02:19;22.20;55.40
12926;DHT22;6529;50.566;9.774;2023-08-01T13:04:45;22.20;99.90
12926;DHT22;6529;50.566;9.774;2023-08-01T13:07:10;22.50;8.50
12926;DHT22;6529;50.566;9.774;2023-08-01T13:09:36;22.30;1.00
12926;DHT22;6529;50.566;9.774;2023-08-01T13:12:02;22.30;1.00
12926;DHT22;6529;50.566;9.774;2023-08-01T13:14:28;21.90;27.60
12926;DHT22;6529;50.566;9.774;2023-08-01T13:16:54;22.00;1.00
12926;DHT22;6529;50.566;9.774;2023-08-01T13:19:19;21.90;99.90
12926;DHT22;6529;50.566;9.774;2023-08-01T13:21:45;22.00;1.00
12926;DHT22;6529;50.566;9.774;2023-08-01T13:24:10;22.20;99.90
12926;DHT22;6529;50.566;9.774;2023-08-01T13:26:36;21.90;1.00
12926;DHT22;6529;50.566;9.774;2023-08-01T13:29:02;21.60;1.00
12926;DHT22;6529;50.566;9.774;2023-08-01T13:31:27;21.20;99.90
12926;DHT22;6529;50.566;9.774;2023-08-01T13:33:54;21.10;1.00
12926;DHT22;6529;50.566;9.774;2023-08-01T13:36:20;21.00;99.90
12926;DHT22;6529;50.566;9.774;2023-08-01T13:38:45;21.60;1.00
12926;DHT22;6529;50.566;9.774;2023-08-01T13:41:11;21.70;99.90
12926;DHT22;6529;50.566;9.774;2023-08-01T13:43:36;21.70;1.00
12926;DHT22;6529;50.566;9.774;2023-08-01T13:46:15;21.60;99.90
12926;DHT22;6529;50.566;9.774;2023-08-01T13:48:42;21.60;99.90
12926;DHT22;6529;50.566;9.774;2023-08-01T13:51:07;22.00;70.40
12926;DHT22;6529;50.566;9.774;2023-08-01T13:53:33;22.20;1.00
12926;DHT22;6529;50.566;9.774;2023-08-01T13:55:59;22.20;28.10
12926;DHT22;6529;50.566;9.774;2023-08-01T13:58:25;22.10;1.00
12926;DHT22;6529;50.566;9.774;2023-08-01T14:00:50;22.20;1.00
12926;DHT22;6529;50.566;9.774;2023-08-01T14:03:16;22.50;99.90
12926;DHT22;6529;50.566;9.774;2023-08-01T14:05:41;22.60;1.00
12926;DHT22;6529;50.566;9.774;2023-08-01T14:08:07;22.60;95.60
12926;DHT22;6529;50.566;9.774;2023-08-01T14:10:32;22.90;99.90
12926;DHT22;6529;50.566;9.774;2023-08-01T14:12:58;22.70;1.00
12926;DHT22;6529;50.566;9.774;2023-08-01T14:15:24;22.80;1.00
12926;DHT22;6529;50.566;9.774;2023-08-01T14:17:49;23.00;9.20
12926;DHT22;6529;50.566;9.774;2023-08-01T14:20:15;22.90;1.00
12926;DHT22;6529;50.566;9.774;2023-08-01T14:22:41;23.20;1.00
12926;DHT22;6529;50.566;9.774;2023-08-01T14:25:08;23.20;99.90
12926;DHT22;6529;50.566;9.774;2023-08-01T14:27:34;22.80;1.00
12926;DHT22;6529;50.566;9.774;2023-08-01T14:30:00;22.50;1.00
12926;DHT22;6529;50.566;9.774;2023-08-01T14:32:25;22.20;99.90
12926;DHT22;6529;50.566;9.774;2023-08-01T14:34:51;22.00;1.00
12926;DHT22;6529;50.566;9.774;2023-08-01T14:37:16;21.70;9.10
12926;DHT22;6529;50.566;9.774;2023-08-01T14:39:42;21.40;1.00
12926;DHT22;6529;50.566;9.774;2023-08-01T14:42:07;21.30;1.00
12926;DHT22;6529;50.566;9.774;2023-08-01T14:44:33;21.10;1.00
12926;DHT22;6529;50.566;9.774;2023-08-01T14:46:58;21.00;1.00
12926;DHT22;6529;50.566;9.774;2023-08-01T14:49:24;20.80;1.00
12926;DHT22;6529;50.566;9.774;2023-08-01T14:51:53;20.60;99.90
12926;DHT22;6529;50.566;9.774;2023-08-01T14:54:18;20.50;99.90
12926;DHT22;6529;50.566;9.774;2023-08-01T14:56:44;20.20;99.90
12926;DHT22;6529;50.566;9.774;2023-08-01T14:59:10;19.90;99.90
12926;DHT22;6529;50.566;9.774;2023-08-01T15:01:35;19.70;1.00
12926;DHT22;6529;50.566;9.774;2023-08-01T15:04:01;19.40;1.00
12926;DHT22;6529;50.566;9.774;2023-08-01T15:06:26;19.30;99.90
12926;DHT22;6529;50.566;9.774;2023-08-01T15:08:52;19.40;56.70
12926;DHT22;6529;50.566;9.774;2023-08-01T15:11:17;19.50;99.90
12926;DHT22;6529;50.566;9.774;2023-08-01T15:13:43;19.60;99.90
12926;DHT22;6529;50.566;9.774;2023-08-01T15:16:10;19.80;99.90
12926;DHT22;6529;50.566;9.774;2023-08-01T15:18:36;20.00;1.00
12926;DHT22;6529;50.566;9.774;2023-08-01T15:21:02;20.40;1.00
12926;DHT22;6529;50.566;9.774;2023-08-01T15:23:27;20.60;1.00
12926;DHT22;6529;50.566;9.774;2023-08-01T15:25:57;20.50;1.00
12926;DHT22;6529;50.566;9.774;2023-08-01T15:28:25;20.40;1.00
12926;DHT22;6529;50.566;9.774;2023-08-01T15:33:31;20.60;1.00
12926;DHT22;6529;50.566;9.774;2023-08-01T15:36:01;20.60;11.10
12926;DHT22;6529;50.566;9.774;2023-08-01T15:38:27;20.30;99.90
12926;DHT22;6529;50.566;9.774;2023-08-01T15:40:53;20.00;99.90
12926;DHT22;6529;50.566;9.774;2023-08-01T15:43:19;20.00;99.90
12926;DHT22;6529;50.566;9.774;2023-08-01T15:45:45;19.90;99.90
12926;DHT22;6529;50.566;9.774;2023-08-01T15:48:11;19.80;1.00
12926;DHT22;6529;50.566;9.774;2023-08-01T15:50:37;19.70;1.00
12926;DHT22;6529;50.566;9.774;2023-08-01T15:53:02;19.70;89.00
12926;DHT22;6529;50.566;9.774;2023-08-01T15:55:28;19.70;99.90
12926;DHT22;6529;50.566;9.774;2023-08-01T15:57:53;19.70;1.00